createdAt,value
2023-01-05T00:00:23.693Z,5.45
2023-01-05T00:03:26.300Z,5.34
2023-01-05T00:06:29.013Z,5.39
2023-01-05T00:09:31.658Z,5.27
2023-01-05T00:12:52.870Z,5.30
2023-01-05T00:16:14.256Z,5.36
2023-01-05T00:19:35.840Z,5.20
2023-01-05T00:22:46.902Z,5.33
2023-01-05T00:25:49.418Z,5.27
2023-01-05T00:28:52.151Z,5.26
2023-01-05T00:31:54.765Z,5.22
2023-01-05T00:34:58.693Z,5.22
2023-01-05T00:38:01.286Z,5.41
2023-01-05T00:41:03.755Z,5.37
2023-01-05T00:44:06.255Z,5.29
2023-01-05T00:47:08.912Z,5.48
2023-01-05T00:50:14.931Z,5.39
2023-01-05T00:53:17.729Z,5.48
2023-01-05T00:56:20.264Z,5.24
2023-01-05T00:59:22.884Z,5.28
2023-01-05T01:02:25.473Z,5.29
2023-01-05T01:05:28.113Z,5.08
2023-01-05T01:08:32.721Z,5.15
2023-01-05T01:11:35.599Z,5.13
2023-01-05T01:14:39.292Z,5.29
2023-01-05T01:17:41.846Z,5.37
2023-01-05T01:20:44.409Z,5.33
2023-01-05T01:23:46.970Z,5.51
2023-01-05T01:26:49.703Z,5.51
2023-01-05T01:29:52.410Z,5.50
2023-01-05T01:32:55.450Z,5.67
2023-01-05T01:35:58.579Z,5.65
2023-01-05T01:39:01.264Z,5.72
2023-01-05T01:42:14.752Z,5.68
2023-01-05T01:45:24.135Z,5.77
2023-01-05T01:48:27.007Z,5.68
2023-01-05T01:51:48.066Z,5.78
2023-01-05T01:54:51.675Z,5.73
2023-01-05T01:57:54.448Z,5.81
2023-01-05T02:00:57.854Z,5.80
2023-01-05T02:04:02.274Z,5.80
2023-01-05T02:07:06.105Z,5.79
2023-01-05T02:10:09.834Z,5.58
2023-01-05T02:13:35.410Z,5.56
2023-01-05T02:16:55.021Z,5.72
2023-01-05T02:20:25.757Z,5.85
2023-01-05T02:23:47.142Z,5.91
2023-01-05T02:27:17.854Z,5.69
2023-01-05T02:30:54.367Z,5.63
2023-01-05T02:34:12.409Z,5.70
2023-01-05T02:37:41.649Z,5.52
2023-01-05T02:40:47.585Z,5.73
2023-01-05T02:43:50.600Z,5.73
2023-01-05T02:47:19.653Z,5.86
2023-01-05T02:50:34.629Z,5.92
2023-01-05T02:53:41.418Z,5.92
2023-01-05T02:56:52.115Z,6.16
2023-01-05T02:59:54.824Z,5.80
2023-01-05T03:03:04.680Z,6.17
2023-01-05T03:06:30.563Z,6.24
2023-01-05T03:09:39.404Z,6.09
2023-01-05T03:13:04.741Z,6.17
2023-01-05T03:16:09.531Z,6.67
2023-01-05T03:19:32.238Z,6.98
2023-01-05T03:22:54.777Z,7.01
2023-01-05T03:26:17.299Z,7.55
2023-01-05T03:29:39.029Z,7.47
2023-01-05T03:33:11.916Z,7.68
2023-01-05T03:36:18.878Z,8.05
2023-01-05T03:39:26.687Z,8.03
2023-01-05T03:42:31.321Z,8.12
2023-01-05T03:45:41.004Z,8.10
2023-01-05T03:48:46.045Z,8.17
2023-01-05T03:51:48.639Z,8.24
2023-01-05T03:54:51.869Z,8.14
2023-01-05T03:57:55.264Z,8.30
2023-01-05T04:00:57.870Z,8.22
2023-01-05T04:04:01.134Z,8.43
2023-01-05T04:07:04.099Z,8.21
2023-01-05T04:10:10.794Z,8.24
2023-01-05T04:13:13.495Z,8.20
2023-01-05T04:16:18.904Z,8.29
2023-01-05T04:19:21.843Z,8.46
2023-01-05T04:22:27.815Z,8.42
2023-01-05T04:25:31.286Z,8.51
2023-01-05T04:28:46.192Z,8.45
2023-01-05T04:31:48.780Z,8.40
2023-01-05T04:34:51.467Z,8.47
2023-01-05T04:37:56.542Z,8.47
2023-01-05T04:40:59.585Z,8.40
2023-01-05T04:44:02.515Z,8.40
2023-01-05T04:47:05.086Z,8.44
2023-01-05T04:50:10.248Z,8.37
2023-01-05T04:53:13.627Z,8.47
2023-01-05T04:56:18.403Z,8.48
2023-01-05T04:59:21.868Z,8.40
2023-01-05T05:02:27.540Z,8.39
2023-01-05T05:05:30.160Z,8.42
2023-01-05T05:08:33.061Z,8.57
2023-01-05T05:11:37.304Z,8.51
2023-01-05T05:14:39.896Z,8.48
2023-01-05T05:17:43.196Z,8.48
2023-01-05T05:20:50.895Z,8.65
2023-01-05T05:23:53.659Z,8.56
2023-01-05T05:26:57.587Z,8.54
2023-01-05T05:30:00.114Z,8.56
2023-01-05T05:33:02.620Z,8.52
2023-01-05T05:36:06.280Z,8.47
2023-01-05T05:39:08.780Z,8.51
2023-01-05T05:42:11.315Z,8.50
2023-01-05T05:45:13.833Z,8.47
2023-01-05T05:48:16.372Z,8.46
2023-01-05T05:51:20.067Z,8.44
2023-01-05T05:54:22.861Z,8.49
2023-01-05T05:57:25.688Z,8.49
2023-01-05T06:00:28.426Z,8.63
2023-01-05T06:03:31.046Z,8.61
2023-01-05T06:06:33.688Z,8.64
2023-01-05T06:09:36.179Z,8.59
2023-01-05T06:12:38.792Z,8.70
2023-01-05T06:15:42.431Z,8.73
2023-01-05T06:18:44.970Z,8.78
2023-01-05T06:21:47.466Z,8.75
2023-01-05T06:24:50.052Z,8.83
2023-01-05T06:27:52.685Z,8.78
2023-01-05T06:30:55.272Z,8.95
2023-01-05T06:33:57.786Z,8.94
2023-01-05T06:37:02.535Z,8.81
2023-01-05T06:40:05.981Z,8.79
2023-01-05T06:43:08.515Z,8.75
2023-01-05T06:46:11.240Z,8.78
2023-01-05T06:49:14.998Z,8.72
2023-01-05T06:52:17.675Z,8.65
2023-01-05T06:55:22.061Z,8.70
2023-01-05T06:58:30.184Z,8.74
2023-01-05T07:01:32.946Z,8.71
2023-01-05T07:04:35.690Z,8.77
2023-01-05T07:07:38.310Z,8.70
2023-01-05T07:10:41.288Z,8.70
2023-01-05T07:13:48.204Z,8.66
2023-01-05T07:16:50.992Z,8.68
2023-01-05T07:19:53.561Z,8.60
2023-01-05T07:22:56.135Z,8.55
2023-01-05T07:26:01.868Z,8.45
2023-01-05T07:29:04.776Z,8.35
2023-01-05T07:32:07.703Z,8.29
2023-01-05T07:35:10.341Z,8.28
2023-01-05T07:38:13.009Z,8.26
2023-01-05T07:41:16.074Z,8.26
2023-01-05T07:44:18.693Z,8.29
2023-01-05T07:47:21.269Z,8.39
2023-01-05T07:50:23.925Z,8.33
2023-01-05T07:53:26.488Z,8.38
2023-01-05T07:56:29.041Z,8.32
2023-01-05T07:59:31.611Z,8.28
2023-01-05T08:02:36.302Z,8.18
2023-01-05T08:05:39.081Z,8.38
2023-01-05T08:08:41.969Z,8.34
2023-01-05T08:11:44.705Z,8.36
2023-01-05T08:14:49.635Z,8.38
2023-01-05T08:17:52.161Z,8.53
2023-01-05T08:20:56.746Z,8.54
2023-01-05T08:24:00.045Z,8.44
2023-01-05T08:27:02.938Z,8.35
2023-01-05T08:30:06.220Z,8.39
2023-01-05T08:33:09.157Z,8.47
2023-01-05T08:36:14.381Z,8.50
2023-01-05T08:39:16.941Z,8.55
2023-01-05T08:42:19.499Z,8.52
2023-01-05T08:45:22.123Z,8.61
2023-01-05T08:48:24.890Z,8.69
2023-01-05T08:51:28.353Z,8.90
2023-01-05T08:54:31.248Z,8.99
2023-01-05T08:57:34.526Z,9.11
2023-01-05T09:00:39.787Z,9.26
2023-01-05T09:03:42.634Z,9.28
2023-01-05T09:06:45.351Z,9.32
2023-01-05T09:09:48.128Z,9.34
2023-01-05T09:12:50.843Z,9.34
2023-01-05T09:15:53.598Z,9.38
2023-01-05T09:18:57.889Z,9.39
2023-01-05T09:22:00.613Z,9.31
2023-01-05T09:25:03.935Z,9.31
2023-01-05T09:28:06.644Z,9.28
2023-01-05T09:31:17.515Z,9.22
2023-01-05T09:34:20.195Z,9.25
2023-01-05T09:37:22.719Z,9.17
2023-01-05T09:40:25.628Z,9.24
2023-01-05T09:43:33.983Z,9.27
2023-01-05T09:46:43.551Z,9.25
2023-01-05T09:49:48.243Z,9.24
2023-01-05T09:52:53.020Z,9.29
2023-01-05T09:55:56.041Z,9.21
2023-01-05T09:59:35.278Z,9.27
2023-01-05T10:02:37.873Z,9.20
2023-01-05T10:05:42.790Z,9.27
2023-01-05T10:08:49.102Z,9.14
2023-01-05T10:12:29.592Z,9.17
2023-01-05T10:15:44.362Z,9.18
2023-01-05T10:18:47.245Z,9.21
2023-01-05T10:22:24.956Z,9.24
2023-01-05T10:25:46.373Z,9.20
2023-01-05T10:28:52.000Z,9.17
2023-01-05T10:32:10.051Z,9.24
2023-01-05T10:39:06.211Z,9.32
2023-01-05T10:42:16.418Z,9.24
2023-01-05T10:45:20.740Z,9.37
2023-01-05T10:48:28.424Z,9.25
2023-01-05T10:51:34.216Z,9.46
2023-01-05T10:54:40.006Z,9.42
2023-01-05T10:57:43.302Z,9.44
2023-01-05T11:00:46.216Z,9.54
2023-01-05T11:07:12.432Z,9.69
2023-01-05T11:10:36.224Z,9.91
2023-01-05T11:13:46.970Z,9.75
2023-01-05T11:16:51.924Z,9.85
2023-01-05T11:19:56.657Z,9.78
2023-01-05T11:22:59.411Z,9.75
2023-01-05T11:26:30.961Z,9.50
2023-01-05T11:29:33.691Z,9.60
2023-01-05T11:32:36.366Z,9.72
2023-01-05T11:35:39.354Z,9.70
2023-01-05T11:38:42.146Z,9.66
2023-01-05T11:41:44.756Z,9.52
2023-01-05T11:44:58.460Z,9.53
2023-01-05T11:48:09.461Z,9.53
2023-01-05T11:51:41.174Z,9.57
2023-01-05T11:54:44.821Z,9.53
2023-01-05T11:57:52.704Z,9.58
2023-01-05T12:01:20.560Z,9.63
2023-01-05T12:04:35.608Z,9.70
2023-01-05T12:07:43.204Z,9.84
2023-01-05T12:11:03.273Z,10.07
2023-01-05T12:14:27.820Z,9.94
2023-01-05T12:17:34.695Z,10.27
2023-01-05T12:20:37.325Z,10.18
2023-01-05T12:23:52.252Z,10.19
2023-01-05T12:27:10.130Z,9.94
2023-01-05T12:34:13.353Z,9.97
2023-01-05T12:37:28.623Z,10.13
2023-01-05T12:41:24.172Z,10.02
2023-01-05T12:44:48.439Z,9.96
2023-01-05T12:48:10.701Z,9.96
2023-01-05T12:51:24.901Z,10.03
2023-01-05T12:54:47.757Z,9.89
2023-01-05T12:57:59.077Z,9.88
2023-01-05T13:01:03.502Z,9.85
2023-01-05T13:04:26.992Z,9.88
2023-01-05T13:07:36.189Z,9.99
2023-01-05T13:10:45.815Z,9.98
2023-01-05T13:14:00.200Z,10.00
2023-01-05T13:17:31.203Z,9.96
2023-01-05T13:20:41.365Z,10.04
2023-01-05T13:23:48.135Z,9.97
2023-01-05T13:26:50.812Z,9.95
2023-01-05T13:29:59.520Z,9.85
2023-01-05T13:33:20.681Z,9.84
2023-01-05T13:36:58.210Z,9.88
2023-01-05T13:40:11.303Z,9.85
2023-01-05T13:43:20.427Z,9.82
2023-01-05T13:47:01.061Z,9.82
2023-01-05T13:50:41.848Z,9.94
2023-01-05T13:53:45.953Z,9.88
2023-01-05T13:56:50.492Z,9.99
2023-01-05T14:00:07.299Z,10.05
2023-01-05T14:03:27.707Z,9.98
2023-01-05T14:06:33.451Z,9.91
2023-01-05T14:09:48.629Z,9.97
2023-01-05T14:12:54.401Z,9.92
2023-01-05T14:15:57.202Z,9.90
2023-01-05T14:19:24.199Z,9.82
2023-01-05T14:22:37.889Z,9.79
2023-01-05T14:25:40.374Z,9.76
2023-01-05T14:28:45.428Z,9.78
2023-01-05T14:31:48.605Z,9.77
2023-01-05T14:34:54.614Z,9.73
2023-01-05T14:38:23.649Z,9.78
2023-01-05T14:41:28.396Z,9.66
2023-01-05T14:44:43.051Z,9.73
2023-01-05T14:47:47.599Z,9.70
2023-01-05T14:51:08.659Z,9.59
2023-01-05T14:54:11.587Z,9.68
2023-01-05T14:57:26.657Z,9.62
2023-01-05T15:00:29.344Z,9.67
2023-01-05T15:03:50.223Z,9.63
2023-01-05T15:07:18.131Z,9.61
2023-01-05T15:10:50.238Z,9.58
2023-01-05T15:14:29.522Z,9.53
2023-01-05T15:17:54.017Z,9.57
2023-01-05T15:21:11.332Z,9.51
2023-01-05T15:24:44.871Z,9.49
2023-01-05T15:28:13.591Z,9.56
2023-01-05T15:31:36.331Z,9.55
2023-01-05T15:34:44.514Z,9.43
2023-01-05T15:37:48.971Z,9.38
2023-01-05T15:41:08.517Z,9.33
2023-01-05T15:44:16.688Z,9.41
2023-01-05T15:47:20.851Z,9.37
2023-01-05T15:50:27.934Z,9.45
2023-01-05T15:53:33.360Z,9.41
2023-01-05T15:56:42.076Z,9.45
2023-01-05T15:59:48.500Z,9.46
2023-01-05T16:02:51.486Z,9.56
2023-01-05T16:06:24.756Z,9.45
2023-01-05T16:09:34.384Z,9.45
2023-01-05T16:12:37.467Z,9.49
2023-01-05T16:15:42.208Z,9.45
2023-01-05T16:18:52.566Z,9.51
2023-01-05T16:22:03.833Z,9.52
2023-01-05T16:25:24.427Z,9.52
2023-01-05T16:28:27.383Z,9.43
2023-01-05T16:31:34.859Z,9.43
2023-01-05T16:34:37.806Z,9.38
2023-01-05T16:37:40.407Z,9.37
2023-01-05T16:40:45.802Z,9.35
2023-01-05T16:43:59.979Z,9.30
2023-01-05T16:47:10.565Z,9.31
2023-01-05T16:50:22.866Z,9.29
2023-01-05T16:53:25.849Z,9.29
2023-01-05T16:56:32.274Z,9.28
2023-01-05T16:59:59.500Z,9.27
2023-01-05T17:03:04.995Z,9.27
2023-01-05T17:06:24.671Z,9.21
2023-01-05T17:09:28.210Z,9.21
2023-01-05T17:12:31.209Z,9.21
2023-01-05T17:15:36.203Z,9.18
2023-01-05T17:18:39.367Z,9.13
2023-01-05T17:22:01.218Z,9.07
2023-01-05T17:25:05.423Z,9.04
2023-01-05T17:28:10.347Z,9.02
2023-01-05T17:34:17.478Z,9.11
2023-01-05T17:37:20.235Z,9.09
2023-01-05T17:40:23.546Z,8.99
2023-01-05T17:43:26.904Z,9.02
2023-01-05T17:46:31.631Z,9.00
2023-01-05T17:49:34.338Z,9.03
2023-01-05T17:52:37.008Z,8.99
2023-01-05T17:55:39.842Z,9.05
2023-01-05T17:58:42.673Z,9.07
2023-01-05T18:05:09.686Z,9.00
2023-01-05T18:08:12.544Z,9.01
2023-01-05T18:11:17.264Z,8.91
2023-01-05T18:14:23.861Z,9.10
2023-01-05T18:17:27.212Z,9.09
2023-01-05T18:20:30.410Z,9.04
2023-01-05T18:23:33.598Z,8.95
2023-01-05T18:26:36.487Z,8.97
2023-01-05T18:29:41.151Z,8.96
2023-01-05T18:32:44.765Z,8.87
2023-01-05T18:35:50.422Z,8.97
2023-01-05T18:38:53.449Z,8.97
2023-01-05T18:41:57.229Z,8.90
2023-01-05T18:45:04.971Z,8.74
2023-01-05T18:48:17.502Z,8.77
2023-01-05T18:51:20.441Z,8.71
2023-01-05T18:54:23.580Z,8.72
2023-01-05T18:57:26.630Z,8.49
2023-01-05T19:00:30.118Z,8.52
2023-01-05T19:03:34.372Z,8.41
2023-01-05T19:06:38.235Z,8.38
2023-01-05T19:09:40.894Z,8.48
2023-01-05T19:12:43.644Z,8.52
2023-01-05T19:15:46.373Z,8.32
2023-01-05T19:18:51.326Z,8.42
2023-01-05T19:21:55.394Z,8.44
2023-01-05T19:24:59.165Z,8.37
2023-01-05T19:28:02.585Z,8.11
2023-01-05T19:31:07.417Z,8.14
2023-01-05T19:34:12.967Z,8.06
2023-01-05T19:37:16.007Z,8.18
2023-01-05T19:40:18.730Z,8.15
2023-01-05T19:43:21.503Z,8.09
2023-01-05T19:46:26.031Z,7.83
2023-01-05T19:49:28.896Z,7.83
2023-01-05T19:52:31.659Z,7.92
2023-01-05T19:55:39.370Z,7.89
2023-01-05T19:58:43.175Z,7.92
2023-01-05T20:01:46.380Z,7.81
2023-01-05T20:04:49.361Z,7.89
2023-01-05T20:07:52.152Z,7.89
2023-01-05T20:10:54.743Z,7.90
2023-01-05T20:13:57.462Z,7.81
2023-01-05T20:17:02.495Z,7.82
2023-01-05T20:20:05.945Z,7.83
2023-01-05T20:23:08.629Z,7.91
2023-01-05T20:26:16.832Z,7.92
2023-01-05T20:29:20.976Z,7.96
2023-01-05T20:32:25.422Z,7.84
2023-01-05T20:35:28.253Z,7.79
2023-01-05T20:38:32.605Z,7.93
2023-01-05T20:41:41.475Z,7.81
2023-01-05T20:44:46.590Z,7.70
2023-01-05T20:47:49.170Z,7.67
2023-01-05T20:50:51.957Z,7.71
2023-01-05T20:53:55.808Z,7.71
2023-01-05T20:56:58.418Z,7.72
2023-01-05T21:00:01.393Z,7.59
2023-01-05T21:03:04.635Z,7.64
2023-01-05T21:06:09.685Z,7.66
2023-01-05T21:09:12.818Z,7.65
2023-01-05T21:12:15.986Z,7.61
2023-01-05T21:15:18.789Z,7.55
2023-01-05T21:18:22.110Z,7.58
2023-01-05T21:21:26.204Z,7.58
2023-01-05T21:24:29.109Z,7.58
2023-01-05T21:27:31.811Z,7.51
2023-01-05T21:30:34.407Z,7.57
2023-01-05T21:33:37.869Z,7.50
2023-01-05T21:36:45.216Z,7.52
2023-01-05T21:39:48.508Z,7.43
2023-01-05T21:42:51.683Z,7.34
2023-01-05T21:45:54.997Z,7.34
2023-01-05T21:48:57.814Z,7.32
2023-01-05T21:52:19.291Z,7.21
2023-01-05T21:55:40.453Z,7.27
2023-01-05T21:58:43.222Z,7.22
2023-01-05T22:01:45.890Z,7.24
2023-01-05T22:04:49.223Z,7.25
2023-01-05T22:07:52.063Z,7.20
2023-01-05T22:10:56.227Z,7.23
2023-01-05T22:13:59.034Z,7.24
2023-01-05T22:17:01.966Z,7.21
2023-01-05T22:20:05.082Z,7.21
2023-01-05T22:23:07.693Z,7.20
2023-01-05T22:26:15.819Z,7.26
2023-01-05T22:29:19.507Z,7.23
2023-01-05T22:32:22.572Z,7.22
2023-01-05T22:35:26.017Z,7.20
2023-01-05T22:38:29.412Z,7.18
2023-01-05T22:41:32.052Z,7.13
2023-01-05T22:44:34.899Z,7.06
2023-01-05T22:47:37.601Z,7.05
2023-01-05T22:50:40.328Z,7.01
2023-01-05T22:53:44.305Z,6.99
2023-01-05T22:56:47.020Z,6.93
2023-01-05T22:59:49.580Z,6.96
2023-01-05T23:02:52.366Z,7.01
2023-01-05T23:05:55.017Z,6.95
2023-01-05T23:08:58.519Z,6.96
2023-01-05T23:12:01.910Z,6.92
2023-01-05T23:15:07.836Z,6.96
2023-01-05T23:18:10.385Z,6.97
2023-01-05T23:21:14.637Z,6.99
2023-01-05T23:24:17.271Z,6.89
2023-01-05T23:27:19.962Z,6.92
2023-01-05T23:30:22.590Z,6.88
2023-01-05T23:33:27.445Z,6.91
2023-01-05T23:36:30.107Z,6.96
2023-01-05T23:39:32.671Z,6.87
2023-01-05T23:42:44.301Z,6.78
2023-01-05T23:45:47.505Z,6.72
2023-01-05T23:48:51.568Z,6.69
2023-01-05T23:51:54.127Z,6.62
2023-01-05T23:54:56.679Z,6.49
2023-01-05T23:57:59.319Z,6.46
